createdAt,value
2022-09-23T00:01:25.844Z,3.25
2022-09-23T00:03:53.994Z,4.43
2022-09-23T00:06:24.146Z,4.07
2022-09-23T00:08:52.811Z,8.30
2022-09-23T00:11:24.233Z,5.10
2022-09-23T00:13:54.865Z,4.38
2022-09-23T00:16:26.908Z,5.05
2022-09-23T00:18:54.974Z,3.30
2022-09-23T00:21:25.092Z,3.45
2022-09-23T00:23:53.366Z,3.80
2022-09-23T00:26:24.147Z,4.97
2022-09-23T00:28:52.826Z,4.32
2022-09-23T00:31:23.289Z,5.07
2022-09-23T00:33:55.155Z,4.95
2022-09-23T00:36:23.648Z,3.97
2022-09-23T00:38:51.715Z,3.65
2022-09-23T00:41:19.929Z,3.17
2022-09-23T00:43:51.550Z,3.67
2022-09-23T00:46:23.461Z,5.53
2022-09-23T00:48:58.149Z,4.20
2022-09-23T00:51:30.804Z,5.35
2022-09-23T00:53:59.299Z,5.47
2022-09-23T00:56:27.626Z,3.65
2022-09-23T00:58:57.034Z,4.28
2022-09-23T01:01:26.108Z,5.68
2022-09-23T01:03:55.507Z,4.22
2022-09-23T01:06:23.539Z,4.88
2022-09-23T01:08:51.995Z,3.50
2022-09-23T01:11:37.222Z,4.10
2022-09-23T01:14:32.094Z,10.00
2022-09-23T01:17:04.996Z,3.15
2022-09-23T01:19:56.662Z,5.32
2022-09-23T01:22:33.412Z,3.15
2022-09-23T01:25:26.053Z,4.10
2022-09-23T01:28:13.612Z,3.55
2022-09-23T01:30:48.025Z,3.30
2022-09-23T01:33:24.811Z,4.13
2022-09-23T01:36:05.607Z,5.10
2022-09-23T01:38:40.454Z,3.33
2022-09-23T01:41:24.366Z,2.90
2022-09-23T01:44:01.064Z,4.72
2022-09-23T01:46:33.559Z,2.90
2022-09-23T01:49:07.881Z,3.30
2022-09-23T01:51:40.353Z,4.85
2022-09-23T01:54:15.736Z,3.20
2022-09-23T01:56:48.498Z,5.88
2022-09-23T01:59:21.551Z,3.38
2022-09-23T02:01:56.183Z,4.35
2022-09-23T02:04:27.076Z,4.93
2022-09-23T02:06:59.786Z,3.65
2022-09-23T02:09:35.044Z,4.78
2022-09-23T02:12:08.947Z,4.00
2022-09-23T02:14:43.518Z,5.93
2022-09-23T02:17:16.842Z,3.47
2022-09-23T02:19:48.545Z,3.53
2022-09-23T02:22:21.192Z,4.82
2022-09-23T02:24:50.561Z,4.63
2022-09-23T02:27:25.791Z,3.75
2022-09-23T02:30:01.725Z,6.50
2022-09-23T02:32:35.535Z,3.80
2022-09-23T02:35:15.605Z,6.00
2022-09-23T02:37:48.096Z,4.32
2022-09-23T02:40:23.662Z,4.00
2022-09-23T02:43:02.755Z,4.35
2022-09-23T02:45:31.172Z,5.25
2022-09-23T02:48:06.663Z,6.22
2022-09-23T02:50:35.573Z,4.20
2022-09-23T02:53:04.304Z,5.95
2022-09-23T02:55:32.701Z,3.58
2022-09-23T02:58:02.614Z,3.83
2022-09-23T03:00:40.293Z,3.90
2022-09-23T03:03:23.037Z,4.20
2022-09-23T03:05:56.348Z,6.05
2022-09-23T03:08:36.874Z,8.45
2022-09-23T03:11:08.520Z,5.28
2022-09-23T03:13:51.090Z,5.18
2022-09-23T03:16:31.139Z,3.90
2022-09-23T03:19:12.348Z,3.63
2022-09-23T03:21:46.118Z,4.72
2022-09-23T03:24:16.399Z,6.07
2022-09-23T03:26:48.460Z,4.80
2022-09-23T03:29:19.257Z,4.63
2022-09-23T03:31:47.704Z,3.88
2022-09-23T03:34:21.443Z,3.78
2022-09-23T03:36:59.173Z,5.50
2022-09-23T03:39:36.665Z,8.40
2022-09-23T03:42:16.844Z,3.97
2022-09-23T03:44:46.047Z,4.90
2022-09-23T03:47:15.099Z,5.90
2022-09-23T03:49:48.329Z,5.88
2022-09-23T03:52:16.794Z,6.68
2022-09-23T03:54:45.051Z,4.57
2022-09-23T03:57:13.974Z,5.50
2022-09-23T03:59:42.176Z,3.85
2022-09-23T04:02:10.400Z,5.88
2022-09-23T04:04:40.346Z,6.63
2022-09-23T04:07:10.824Z,5.78
2022-09-23T04:09:39.799Z,4.57
2022-09-23T04:12:08.178Z,5.47
2022-09-23T04:14:36.225Z,6.35
2022-09-23T04:17:04.477Z,5.68
2022-09-23T04:19:32.605Z,7.43
2022-09-23T04:22:00.978Z,4.88
2022-09-23T04:24:30.504Z,3.92
2022-09-23T04:26:58.775Z,5.40
2022-09-23T04:29:27.813Z,7.30
2022-09-23T04:31:56.000Z,4.82
2022-09-23T04:34:24.166Z,6.07
2022-09-23T04:36:52.265Z,5.53
2022-09-23T04:39:20.454Z,9.18
2022-09-23T04:41:49.854Z,6.03
2022-09-23T04:44:17.937Z,3.63
2022-09-23T04:46:47.274Z,4.35
2022-09-23T04:49:15.681Z,5.53
2022-09-23T04:51:44.130Z,5.72
2022-09-23T04:54:14.316Z,4.15
2022-09-23T04:56:42.817Z,4.35
2022-09-23T04:59:12.245Z,7.45
2022-09-23T05:01:40.490Z,5.00
2022-09-23T05:04:13.808Z,5.78
2022-09-23T05:06:45.140Z,6.00
2022-09-23T05:09:17.116Z,3.85
2022-09-23T05:11:45.535Z,3.95
2022-09-23T05:14:15.250Z,4.78
2022-09-23T05:16:43.344Z,4.63
2022-09-23T05:19:13.464Z,3.90
2022-09-23T05:21:41.701Z,5.28
2022-09-23T05:24:10.141Z,6.38
2022-09-23T05:26:38.349Z,4.65
2022-09-23T05:29:06.514Z,7.70
2022-09-23T05:31:36.705Z,8.63
2022-09-23T05:34:06.819Z,5.22
2022-09-23T05:36:38.595Z,6.90
2022-09-23T05:39:07.643Z,5.90
2022-09-23T05:41:36.075Z,10.40
2022-09-23T05:44:04.309Z,9.88
2022-09-23T05:46:33.189Z,6.22
2022-09-23T05:49:04.219Z,5.35
2022-09-23T05:51:34.385Z,9.40
2022-09-23T05:54:04.105Z,7.18
2022-09-23T05:56:33.777Z,5.78
2022-09-23T05:59:03.159Z,3.63
2022-09-23T06:01:33.857Z,3.83
2022-09-23T06:04:05.537Z,6.40
2022-09-23T06:06:35.899Z,12.05
2022-09-23T06:09:04.683Z,5.25
2022-09-23T06:11:34.043Z,10.32
2022-09-23T06:14:03.386Z,7.63
2022-09-23T06:16:33.304Z,9.10
2022-09-23T06:19:06.190Z,4.82
2022-09-23T06:21:35.891Z,6.82
2022-09-23T06:24:04.619Z,5.15
2022-09-23T06:26:35.067Z,6.75
2022-09-23T06:29:04.501Z,6.00
2022-09-23T06:31:32.982Z,4.95
2022-09-23T06:34:12.197Z,6.20
2022-09-23T06:36:44.832Z,6.30
2022-09-23T06:39:14.296Z,5.50
2022-09-23T06:41:42.700Z,6.22
2022-09-23T06:44:10.959Z,6.72
2022-09-23T06:46:39.123Z,4.85
2022-09-23T06:49:07.467Z,7.05
2022-09-23T06:51:35.528Z,7.70
2022-09-23T06:54:05.103Z,5.90
2022-09-23T06:56:38.019Z,6.43
2022-09-23T06:59:08.265Z,5.78
2022-09-23T07:01:36.528Z,5.88
2022-09-23T07:04:04.859Z,10.30
2022-09-23T07:06:33.056Z,9.93
2022-09-23T07:09:01.171Z,6.85
2022-09-23T07:11:30.884Z,8.43
2022-09-23T07:13:59.078Z,8.88
2022-09-23T07:16:27.459Z,8.93
2022-09-23T07:18:56.268Z,11.07
2022-09-23T07:21:24.253Z,9.82
2022-09-23T07:23:52.409Z,7.80
2022-09-23T07:26:22.859Z,7.63
2022-09-23T07:28:56.838Z,7.82
2022-09-23T07:31:37.098Z,8.90
2022-09-23T07:34:08.409Z,8.25
2022-09-23T07:36:37.386Z,10.88
2022-09-23T07:39:05.966Z,14.43
2022-09-23T07:41:35.411Z,25.40
2022-09-23T07:44:06.312Z,9.05
2022-09-23T07:46:37.000Z,12.23
2022-09-23T07:49:06.636Z,14.65
2022-09-23T07:51:37.150Z,22.80
2022-09-23T07:54:07.417Z,12.32
2022-09-23T07:56:36.218Z,7.95
2022-09-23T07:59:08.488Z,17.08
2022-09-23T08:01:38.566Z,21.00
2022-09-23T08:04:09.186Z,19.42
2022-09-23T08:06:40.790Z,9.20
2022-09-23T08:09:09.388Z,11.43
2022-09-23T08:11:41.693Z,15.88
2022-09-23T08:14:13.243Z,25.73
2022-09-23T08:16:41.780Z,73.47
2022-09-23T08:19:10.195Z,13.02
2022-09-23T08:21:39.236Z,9.70
2022-09-23T08:24:07.677Z,8.10
2022-09-23T08:26:36.506Z,39.45
2022-09-23T08:29:04.555Z,34.75
2022-09-23T08:31:34.066Z,38.65
2022-09-23T08:34:02.360Z,16.58
2022-09-23T08:36:30.515Z,17.55
2022-09-23T08:38:58.529Z,25.02
2022-09-23T08:41:36.711Z,20.67
2022-09-23T08:44:11.935Z,50.13
2022-09-23T08:46:46.423Z,51.35
2022-09-23T08:49:23.085Z,28.00
2022-09-23T08:51:54.846Z,43.13
2022-09-23T08:54:23.368Z,20.85
2022-09-23T08:56:53.233Z,31.23
2022-09-23T08:59:28.757Z,25.00
2022-09-23T09:02:01.578Z,16.00
2022-09-23T09:04:39.798Z,21.65
2022-09-23T09:07:35.802Z,20.00
2022-09-23T09:10:10.525Z,23.80
2022-09-23T09:12:43.391Z,12.77
2022-09-23T09:15:15.374Z,16.75
2022-09-23T09:17:52.118Z,20.30
2022-09-23T09:20:24.610Z,13.90
2022-09-23T09:22:57.696Z,12.50
2022-09-23T09:25:47.463Z,24.40
2022-09-23T09:28:19.705Z,11.02
2022-09-23T09:30:51.484Z,8.90
2022-09-23T09:33:25.415Z,14.00
2022-09-23T09:36:09.627Z,7.30
2022-09-23T09:38:37.964Z,14.52
2022-09-23T09:41:14.988Z,21.23
2022-09-23T09:43:48.428Z,7.18
2022-09-23T09:46:34.218Z,8.00
2022-09-23T09:49:11.320Z,15.18
2022-09-23T09:51:41.161Z,18.60
2022-09-23T09:54:24.643Z,9.02
2022-09-23T09:56:53.074Z,18.80
2022-09-23T09:59:26.545Z,13.43
2022-09-23T10:02:15.007Z,9.60
2022-09-23T10:04:44.687Z,6.60
2022-09-23T10:07:14.713Z,8.25
2022-09-23T10:09:50.561Z,9.90
2022-09-23T10:12:20.120Z,6.45
2022-09-23T10:14:51.269Z,8.70
2022-09-23T10:17:22.689Z,8.80
2022-09-23T10:20:00.787Z,9.20
2022-09-23T10:22:34.459Z,9.02
2022-09-23T10:25:08.549Z,14.35
2022-09-23T10:27:38.810Z,7.47
2022-09-23T10:30:21.596Z,7.43
2022-09-23T10:32:50.849Z,8.57
2022-09-23T10:35:22.582Z,7.47
2022-09-23T10:37:52.604Z,6.78
2022-09-23T10:40:41.980Z,5.47
2022-09-23T10:43:40.414Z,13.65
2022-09-23T10:46:31.547Z,6.57
2022-09-23T10:49:23.493Z,8.10
2022-09-23T10:52:06.628Z,6.25
2022-09-23T10:54:47.306Z,6.28
2022-09-23T10:57:40.469Z,11.02
2022-09-23T11:00:23.308Z,4.65
2022-09-23T11:03:28.105Z,4.38
2022-09-23T11:06:06.637Z,7.85
2022-09-23T11:08:51.656Z,9.10
2022-09-23T11:11:34.162Z,5.53
2022-09-23T11:14:23.835Z,7.18
2022-09-23T11:17:14.653Z,6.80
2022-09-23T11:20:18.717Z,7.00
2022-09-23T11:23:11.992Z,4.68
2022-09-23T11:25:50.527Z,5.50
2022-09-23T11:28:56.100Z,9.18
2022-09-23T11:31:33.645Z,7.18
2022-09-23T11:34:27.664Z,4.20
2022-09-23T11:37:02.197Z,4.47
2022-09-23T11:39:35.957Z,7.75
2022-09-23T11:42:10.742Z,8.15
2022-09-23T11:44:43.608Z,7.35
2022-09-23T11:47:17.093Z,4.88
2022-09-23T11:49:52.620Z,7.43
2022-09-23T11:52:25.753Z,6.15
2022-09-23T11:54:58.424Z,6.10
2022-09-23T11:57:46.146Z,6.50
2022-09-23T12:00:20.485Z,4.60
2022-09-23T12:03:05.452Z,11.00
2022-09-23T12:05:39.528Z,5.65
2022-09-23T12:08:16.338Z,5.97
2022-09-23T12:10:51.688Z,6.18
2022-09-23T12:13:27.611Z,7.75
2022-09-23T12:16:09.881Z,5.43
2022-09-23T12:18:52.625Z,5.50
2022-09-23T12:21:58.054Z,6.72
2022-09-23T12:24:47.004Z,7.47
2022-09-23T12:27:26.072Z,8.40
2022-09-23T12:29:59.715Z,4.55
2022-09-23T12:32:28.387Z,6.97
2022-09-23T12:34:57.187Z,5.00
2022-09-23T12:37:33.363Z,4.95
2022-09-23T12:40:09.324Z,5.25
2022-09-23T12:42:44.141Z,5.78
2022-09-23T12:45:35.576Z,6.07
2022-09-23T12:48:05.235Z,13.23
2022-09-23T12:50:53.496Z,5.53
2022-09-23T12:54:07.374Z,6.88
2022-09-23T12:56:58.541Z,5.53
2022-09-23T12:59:29.067Z,7.00
2022-09-23T13:02:11.202Z,8.60
2022-09-23T13:05:10.344Z,8.45
2022-09-23T13:07:45.378Z,6.15
2022-09-23T13:10:19.266Z,6.07
2022-09-23T13:12:48.366Z,7.53
2022-09-23T13:15:25.417Z,5.30
2022-09-23T13:17:54.791Z,9.32
2022-09-23T13:20:38.211Z,5.68
2022-09-23T13:23:22.622Z,5.55
2022-09-23T13:25:53.231Z,6.43
2022-09-23T13:28:33.744Z,5.07
2022-09-23T13:31:06.193Z,5.50
2022-09-23T13:33:43.824Z,6.47
2022-09-23T13:36:15.066Z,7.57
2022-09-23T13:38:43.621Z,5.63
2022-09-23T13:41:16.267Z,5.25
2022-09-23T13:43:46.776Z,5.28
2022-09-23T13:46:18.268Z,5.18
2022-09-23T13:48:49.918Z,7.32
2022-09-23T13:51:24.553Z,6.32
2022-09-23T13:53:57.223Z,6.53
2022-09-23T13:56:27.259Z,7.07
2022-09-23T13:58:56.641Z,6.30
2022-09-23T14:01:32.263Z,7.20
2022-09-23T14:04:03.121Z,7.18
2022-09-23T14:06:32.519Z,5.68
2022-09-23T14:09:02.917Z,8.02
2022-09-23T14:11:33.418Z,5.35
2022-09-23T14:14:07.363Z,14.35
2022-09-23T14:16:40.515Z,7.57
2022-09-23T14:19:14.810Z,5.97
2022-09-23T14:21:42.963Z,12.13
2022-09-23T14:24:16.523Z,5.22
2022-09-23T14:26:47.866Z,4.82
2022-09-23T14:29:18.632Z,9.45
2022-09-23T14:31:56.905Z,8.35
2022-09-23T14:34:44.274Z,7.43
2022-09-23T14:37:40.378Z,7.65
2022-09-23T14:40:13.631Z,5.32
2022-09-23T14:42:43.656Z,6.13
2022-09-23T14:45:16.816Z,7.13
2022-09-23T14:47:48.316Z,9.88
2022-09-23T14:50:39.170Z,8.60
2022-09-23T14:53:23.171Z,8.40
2022-09-23T14:55:53.720Z,5.80
2022-09-23T14:58:26.605Z,5.13
2022-09-23T15:00:55.827Z,5.38
2022-09-23T15:03:24.127Z,7.15
2022-09-23T15:05:59.760Z,5.57
2022-09-23T15:08:28.892Z,5.30
2022-09-23T15:10:58.448Z,6.95
2022-09-23T15:13:30.570Z,7.93
2022-09-23T15:16:00.089Z,4.82
2022-09-23T15:18:30.591Z,6.80
2022-09-23T15:21:03.755Z,6.05
2022-09-23T15:23:36.902Z,6.50
2022-09-23T15:26:08.156Z,7.47
2022-09-23T15:28:36.226Z,5.03
2022-09-23T15:31:05.820Z,4.95
2022-09-23T15:33:35.588Z,6.82
2022-09-23T15:36:05.415Z,7.18
2022-09-23T15:38:33.535Z,6.07
2022-09-23T15:41:01.638Z,7.38
2022-09-23T15:43:29.747Z,7.25
2022-09-23T15:46:00.315Z,5.75
2022-09-23T15:48:32.409Z,6.03
2022-09-23T15:51:06.881Z,6.72
2022-09-23T15:53:35.431Z,6.03
2022-09-23T15:56:04.229Z,6.78
2022-09-23T15:58:32.290Z,6.55
2022-09-23T16:01:01.560Z,8.90
2022-09-23T16:03:29.665Z,7.65
2022-09-23T16:05:59.993Z,6.57
2022-09-23T16:08:30.056Z,8.88
2022-09-23T16:10:58.298Z,7.88
2022-09-23T16:13:26.318Z,9.85
2022-09-23T16:15:54.317Z,6.55
2022-09-23T16:18:22.398Z,10.77
2022-09-23T16:20:51.258Z,7.50
2022-09-23T16:23:34.335Z,9.68
2022-09-23T16:26:07.273Z,6.57
2022-09-23T16:28:35.514Z,8.02
2022-09-23T16:31:03.602Z,7.78
2022-09-23T16:33:31.657Z,7.15
2022-09-23T16:36:01.013Z,7.82
2022-09-23T16:38:29.314Z,10.05
2022-09-23T16:41:00.601Z,7.28
2022-09-23T16:43:39.295Z,7.30
2022-09-23T16:46:07.851Z,7.63
2022-09-23T16:48:40.575Z,7.10
2022-09-23T16:51:09.440Z,10.02
2022-09-23T16:53:39.213Z,8.77
2022-09-23T16:56:09.421Z,8.80
2022-09-23T16:58:39.865Z,8.70
2022-09-23T17:01:26.457Z,7.35
2022-09-23T17:03:54.788Z,10.57
2022-09-23T17:06:25.064Z,7.88
2022-09-23T17:08:53.100Z,7.97
2022-09-23T17:11:21.987Z,8.45
2022-09-23T17:13:52.303Z,7.50
2022-09-23T17:16:26.506Z,11.90
2022-09-23T17:18:56.425Z,8.52
2022-09-23T17:21:26.569Z,8.48
2022-09-23T17:23:55.291Z,10.75
2022-09-23T17:26:24.341Z,11.57
2022-09-23T17:28:55.616Z,8.48
2022-09-23T17:31:25.018Z,8.48
2022-09-23T17:33:53.740Z,9.63
2022-09-23T17:36:22.054Z,9.60
2022-09-23T17:38:53.473Z,10.48
2022-09-23T17:41:22.378Z,9.52
2022-09-23T17:43:58.516Z,10.70
2022-09-23T17:46:28.844Z,11.55
2022-09-23T17:48:57.098Z,10.38
2022-09-23T17:51:26.213Z,13.75
2022-09-23T17:53:54.367Z,11.18
2022-09-23T17:56:24.990Z,13.88
2022-09-23T17:58:55.269Z,12.45
2022-09-23T18:01:25.364Z,12.23
2022-09-23T18:03:55.694Z,11.38
2022-09-23T18:06:25.291Z,11.75
2022-09-23T18:08:53.929Z,11.43
2022-09-23T18:11:23.640Z,13.40
2022-09-23T18:13:53.468Z,11.63
2022-09-23T18:16:24.836Z,11.02
2022-09-23T18:18:53.455Z,12.25
2022-09-23T18:21:22.272Z,14.00
2022-09-23T18:23:50.859Z,12.63
2022-09-23T18:26:20.405Z,13.55
2022-09-23T18:28:49.024Z,12.20
2022-09-23T18:31:17.550Z,11.60
2022-09-23T18:33:51.587Z,12.10
2022-09-23T18:36:19.793Z,11.65
2022-09-23T18:38:48.219Z,14.07
2022-09-23T18:41:16.553Z,16.25
2022-09-23T18:43:48.532Z,18.33
2022-09-23T18:46:18.731Z,15.90
2022-09-23T18:49:04.491Z,13.25
2022-09-23T18:51:35.074Z,16.02
2022-09-23T18:54:05.292Z,13.73
2022-09-23T18:56:37.252Z,14.90
2022-09-23T18:59:07.176Z,16.92
2022-09-23T19:01:35.603Z,13.25
2022-09-23T19:04:04.789Z,17.48
2022-09-23T19:06:35.481Z,13.80
2022-09-23T19:09:05.329Z,14.05
2022-09-23T19:11:36.672Z,15.70
2022-09-23T19:14:07.699Z,14.15
2022-09-23T19:16:37.132Z,15.50
2022-09-23T19:19:06.282Z,14.45
2022-09-23T19:21:36.158Z,13.23
2022-09-23T19:24:06.970Z,14.05
2022-09-23T19:26:37.624Z,15.68
2022-09-23T19:29:08.261Z,14.43
2022-09-23T19:31:39.173Z,14.18
2022-09-23T19:34:10.059Z,13.55
2022-09-23T19:36:42.207Z,15.77
2022-09-23T19:39:16.507Z,15.77
2022-09-23T19:41:44.878Z,13.70
2022-09-23T19:44:13.070Z,14.32
2022-09-23T19:46:45.081Z,13.98
2022-09-23T19:49:13.941Z,14.43
2022-09-23T19:51:44.203Z,14.02
2022-09-23T19:54:12.934Z,15.07
2022-09-23T19:56:41.318Z,19.00
2022-09-23T19:59:09.464Z,15.90
2022-09-23T20:01:37.769Z,16.02
2022-09-23T20:04:06.146Z,15.07
2022-09-23T20:06:37.887Z,15.13
2022-09-23T20:09:07.436Z,16.98
2022-09-23T20:11:35.697Z,15.10
2022-09-23T20:14:05.966Z,16.58
2022-09-23T20:16:36.882Z,15.98
2022-09-23T20:19:05.990Z,17.08
2022-09-23T20:21:35.373Z,16.00
2022-09-23T20:24:06.489Z,17.17
2022-09-23T20:26:50.255Z,15.93
2022-09-23T20:29:18.366Z,16.65
2022-09-23T20:31:46.486Z,16.10
2022-09-23T20:34:14.568Z,21.30
2022-09-23T20:36:42.622Z,18.52
2022-09-23T20:39:11.070Z,17.13
2022-09-23T20:41:40.670Z,17.85
2022-09-23T20:44:12.271Z,16.70
2022-09-23T20:46:45.488Z,16.08
2022-09-23T20:49:16.089Z,16.17
2022-09-23T20:51:44.108Z,17.85
2022-09-23T20:54:13.035Z,15.45
2022-09-23T20:56:42.428Z,15.63
2022-09-23T20:59:14.883Z,16.90
2022-09-23T21:01:43.440Z,21.40
2022-09-23T21:04:11.750Z,16.83
2022-09-23T21:06:39.935Z,15.82
2022-09-23T21:09:08.776Z,17.42
2022-09-23T21:11:37.339Z,17.85
2022-09-23T21:14:07.044Z,15.88
2022-09-23T21:16:35.439Z,17.60
2022-09-23T21:19:04.023Z,16.88
2022-09-23T21:21:32.149Z,17.05
2022-09-23T21:24:24.462Z,14.90
2022-09-23T21:26:50.410Z,15.32
2022-09-23T21:29:19.870Z,16.27
2022-09-23T21:31:49.586Z,16.45
2022-09-23T21:34:17.859Z,16.27
2022-09-23T21:36:46.178Z,17.02
2022-09-23T21:39:14.502Z,17.23
2022-09-23T21:41:42.641Z,15.00
2022-09-23T21:44:11.969Z,16.58
2022-09-23T21:46:41.387Z,15.75
2022-09-23T21:49:09.543Z,17.30
2022-09-23T21:51:40.661Z,18.58
2022-09-23T21:54:12.853Z,27.92
2022-09-23T21:56:41.139Z,24.02
2022-09-23T21:59:09.356Z,22.88
2022-09-23T22:01:38.972Z,22.33
2022-09-23T22:04:19.025Z,23.30
2022-09-23T22:06:48.858Z,18.50
2022-09-23T22:09:19.496Z,16.45
2022-09-23T22:12:08.518Z,15.93
2022-09-23T22:14:38.962Z,17.88
2022-09-23T22:17:10.486Z,16.85
2022-09-23T22:19:46.439Z,16.02
2022-09-23T22:22:16.637Z,15.18
2022-09-23T22:24:46.000Z,16.00
2022-09-23T22:27:17.378Z,15.48
2022-09-23T22:30:02.783Z,14.85
2022-09-23T22:32:43.317Z,15.50
2022-09-23T22:35:16.500Z,17.40
2022-09-23T22:37:44.707Z,15.63
2022-09-23T22:40:15.284Z,16.05
2022-09-23T22:42:44.300Z,16.40
2022-09-23T22:45:13.484Z,17.10
2022-09-23T22:47:45.590Z,16.48
2022-09-23T22:50:15.479Z,15.77
2022-09-23T22:52:43.866Z,16.40
2022-09-23T22:55:12.975Z,17.25
2022-09-23T22:57:41.255Z,17.90
2022-09-23T23:00:11.259Z,16.83
2022-09-23T23:02:39.900Z,15.55
2022-09-23T23:05:08.967Z,14.43
2022-09-23T23:07:38.434Z,16.60
2022-09-23T23:10:07.332Z,17.30
2022-09-23T23:12:35.352Z,15.35
2022-09-23T23:15:03.546Z,15.25
2022-09-23T23:17:31.543Z,16.25
2022-09-23T23:19:59.899Z,16.27
2022-09-23T23:22:28.603Z,16.77
2022-09-23T23:24:58.223Z,16.95
2022-09-23T23:27:26.267Z,17.23
2022-09-23T23:29:54.359Z,16.30
2022-09-23T23:32:22.411Z,16.73
2022-09-23T23:34:50.585Z,18.70
2022-09-23T23:37:20.966Z,19.52
2022-09-23T23:39:49.270Z,15.77
2022-09-23T23:42:18.958Z,17.95
2022-09-23T23:44:47.340Z,17.50
2022-09-23T23:47:15.462Z,16.30
2022-09-23T23:49:43.571Z,17.20
2022-09-23T23:52:12.293Z,17.65
2022-09-23T23:54:40.483Z,18.67
2022-09-23T23:57:08.522Z,14.15
2022-09-23T23:59:37.981Z,13.90
